Time;durP1;ratioP1;P1;durP2;ratioP2;P2;SDS_P1;SDS_P2;PMS_P1;PMS_P2;Temp;Humidity;BMP_temperature;BMP_pressure;BME280_temperature;BME280_humidity;BME280_pressure;Samples;Min_cycle;Max_cycle;Signal;HPM_P1;HPM_P2
2022/04/25 00:00:46;;;;;;;27.08;21.27;;;;;;;6.52;91.63;99561.56;5033569;28;20531;-71
2022/04/25 00:03:11;;;;;;;27.60;20.08;;;;;;;6.55;91.25;99563.91;5035504;28;20051;-70
2022/04/25 00:05:36;;;;;;;30.70;22.02;;;;;;;6.56;91.30;99557.66;5035886;28;20548;-71
2022/04/25 00:08:02;;;;;;;25.35;20.73;;;;;;;6.54;91.40;99567.50;5026538;28;20042;-71
2022/04/25 00:10:27;;;;;;;28.58;20.55;;;;;;;6.50;91.40;99567.94;5035306;28;20038;-70
2022/04/25 00:12:52;;;;;;;32.30;24.40;;;;;;;6.50;91.38;99558.25;5035671;28;20047;-70
2022/04/25 00:15:18;;;;;;;29.77;22.73;;;;;;;6.49;91.55;99567.13;5032239;28;20128;-70
2022/04/25 00:17:43;;;;;;;28.38;22.10;;;;;;;6.44;91.83;99561.50;5031043;28;20096;-70
2022/04/25 00:20:10;;;;;;;27.50;20.65;;;;;;;6.44;91.99;99565.94;5033933;28;20025;-71
2022/04/25 00:22:35;;;;;;;23.65;19.13;;;;;;;6.41;92.10;99564.41;5035797;28;20034;-70
2022/04/25 00:25:02;;;;;;;25.90;20.25;;;;;;;6.38;92.42;99568.16;5032696;28;20045;-70
2022/04/25 00:27:29;;;;;;;27.98;21.65;;;;;;;6.35;92.72;99575.50;5031587;28;20505;-71
2022/04/25 00:29:56;;;;;;;29.38;22.90;;;;;;;6.29;93.12;99579.56;5036497;28;20041;-70
2022/04/25 00:32:21;;;;;;;28.40;21.80;;;;;;;6.29;92.33;99571.69;5038444;28;20131;-71
2022/04/25 00:34:47;;;;;;;28.42;21.13;;;;;;;6.28;92.18;99585.78;5035419;28;20393;-71
2022/04/25 00:37:12;;;;;;;25.63;20.02;;;;;;;6.24;91.99;99594.09;5035315;28;20064;-71
2022/04/25 00:39:37;;;;;;;27.08;21.00;;;;;;;6.21;91.98;99586.50;5035421;28;20033;-71
2022/04/25 00:42:03;;;;;;;24.20;18.58;;;;;;;6.18;91.92;99584.19;5035237;28;20463;-71
2022/04/25 00:44:28;;;;;;;23.75;18.88;;;;;;;6.10;92.10;99588.38;5030048;28;20041;-70
2022/04/25 00:46:55;;;;;;;22.30;17.42;;;;;;;6.09;92.04;99583.25;5043266;28;20283;-71
2022/04/25 00:49:22;;;;;;;21.00;16.98;;;;;;;6.05;92.18;99582.72;5036835;28;20030;-70
2022/04/25 00:51:47;;;;;;;23.98;19.10;;;;;;;6.00;92.85;99584.94;5028979;28;20041;-71
2022/04/25 00:54:14;;;;;;;22.77;18.67;;;;;;;5.99;92.76;99583.31;5037075;28;20034;-71
2022/04/25 00:56:39;;;;;;;26.02;20.00;;;;;;;5.99;92.52;99593.81;5032602;28;20029;-71
2022/04/25 00:59:06;;;;;;;27.55;21.40;;;;;;;6.03;92.15;99596.94;5036709;28;20033;-71
2022/04/25 01:01:34;;;;;;;23.02;18.77;;;;;;;5.97;92.37;99597.56;5038579;28;20681;-71
2022/04/25 01:03:59;;;;;;;20.33;16.33;;;;;;;5.90;92.55;99595.47;5034921;28;20041;-71
2022/04/25 01:06:25;;;;;;;18.98;15.70;;;;;;;5.89;92.49;99595.63;5032239;28;20089;-71
2022/04/25 01:08:51;;;;;;;23.38;17.85;;;;;;;5.84;92.75;99592.59;5034922;28;20152;-71
2022/04/25 01:11:16;;;;;;;26.92;20.63;;;;;;;5.85;93.12;99596.88;5033535;28;20045;-70
2022/04/25 01:13:43;;;;;;;25.92;19.98;;;;;;;5.83;93.31;99596.19;5036216;28;20041;-70
2022/04/25 01:16:08;;;;;;;23.52;18.25;;;;;;;5.83;93.52;99591.75;5038060;28;20041;-71
2022/04/25 01:18:34;;;;;;;24.08;17.65;;;;;;;5.80;92.95;99591.25;5035238;28;20397;-71
2022/04/25 01:21:02;;;;;;;19.83;15.25;;;;;;;5.75;92.96;99589.88;5034402;28;20036;-71
2022/04/25 01:28:58;;;;;;;16.63;12.73;;;;;;;5.58;92.36;99590.63;5034746;28;20303;-71
2022/04/25 01:31:23;;;;;;;19.33;14.90;;;;;;;5.52;92.61;99588.56;5027322;28;20054;-70
2022/04/25 01:33:49;;;;;;;18.30;13.77;;;;;;;5.48;92.62;99593.28;5028847;28;20150;-71
2022/04/25 01:36:14;;;;;;;18.08;14.27;;;;;;;5.41;92.50;99589.56;5031449;28;20088;-71
2022/04/25 01:38:39;;;;;;;18.70;13.60;;;;;;;5.35;92.59;99599.78;5035190;28;20509;-70
2022/04/25 01:41:04;;;;;;;19.73;15.68;;;;;;;5.29;92.32;99588.03;5037450;28;20033;-71
2022/04/25 01:43:36;;;;;;;17.27;13.30;;;;;;;5.22;92.14;99590.44;5034726;28;20452;-70
2022/04/25 01:46:03;;;;;;;;;;;;;;;5.15;92.19;99591.09;5032048;28;20044;-70
2022/04/25 01:48:29;;;;;;;17.33;13.35;;;;;;;5.06;92.26;99591.00;5033280;28;19985;-71
2022/04/25 01:50:55;;;;;;;15.63;12.73;;;;;;;4.99;92.29;99589.88;5032686;28;20670;-70
2022/04/25 01:53:20;;;;;;;17.58;14.13;;;;;;;4.94;92.24;99592.09;5028325;28;20045;-71
2022/04/25 01:55:46;;;;;;;16.33;13.05;;;;;;;4.92;92.39;99595.81;5032899;28;20049;-71
2022/04/25 01:58:11;;;;;;;19.13;14.68;;;;;;;4.87;92.60;99581.34;5033523;28;20085;-71
2022/04/25 02:00:36;;;;;;;16.90;13.18;;;;;;;4.85;92.33;99592.94;5027446;28;20441;-70
2022/04/25 02:03:02;;;;;;;17.50;13.25;;;;;;;4.83;92.58;99594.84;5032303;28;20056;-70
2022/04/25 02:05:27;;;;;;;16.17;12.90;;;;;;;4.81;92.52;99594.16;5029283;28;20128;-71
2022/04/25 02:07:52;;;;;;;19.23;14.40;;;;;;;4.77;92.49;99596.25;5034219;28;20087;-70
2022/04/25 02:10:18;;;;;;;30.48;22.35;;;;;;;4.89;93.07;99599.56;5031587;28;20431;-71
2022/04/25 02:12:44;;;;;;;31.38;23.42;;;;;;;5.10;93.38;99586.28;5032880;28;20038;-71
2022/04/25 02:15:13;;;;;;;28.42;20.90;;;;;;;5.21;93.74;99595.81;5033866;28;20044;-70
2022/04/25 02:17:39;;;;;;;28.67;21.52;;;;;;;5.26;93.79;99593.56;5034144;28;20033;-71
2022/04/25 02:20:05;;;;;;;28.13;21.08;;;;;;;5.32;93.85;99583.38;5032439;28;20076;-71
2022/04/25 02:22:35;;;;;;;30.83;23.75;;;;;;;5.37;94.00;99584.75;5029773;28;20534;-71
2022/04/25 02:25:00;;;;;;;31.85;22.42;;;;;;;5.43;94.00;99584.97;5031183;28;20029;-71
2022/04/25 02:27:26;;;;;;;30.83;23.00;;;;;;;5.46;93.98;99591.75;5034475;28;20406;-71
2022/04/25 02:29:56;;;;;;;26.55;20.05;;;;;;;5.44;93.70;99591.06;5028692;28;20459;-71
2022/04/25 02:32:21;;;;;;;;;;;;;;;5.39;93.70;99593.31;5034186;28;20059;-71
2022/04/25 02:34:47;;;;;;;29.83;22.27;;;;;;;5.41;93.71;99601.81;5034195;28;19917;-71
2022/04/25 02:37:12;;;;;;;26.13;19.67;;;;;;;5.38;93.48;99604.72;5033662;28;20308;-70
2022/04/25 02:39:38;;;;;;;20.83;16.40;;;;;;;5.29;93.32;99598.53;5033733;28;20082;-71
2022/04/25 02:42:03;;;;;;;17.38;13.23;;;;;;;5.20;93.35;99604.63;5034179;28;20375;-71
2022/04/25 02:44:29;;;;;;;16.15;12.35;;;;;;;5.10;93.13;99604.63;5031142;28;20053;-70
2022/04/25 02:46:54;;;;;;;15.20;11.30;;;;;;;5.00;93.10;99604.63;5034656;28;20560;-70
2022/04/25 02:49:19;;;;;;;15.52;11.90;;;;;;;4.94;93.39;99607.81;5040496;28;20029;-70
2022/04/25 02:51:44;;;;;;;18.30;14.00;;;;;;;4.93;93.34;99610.56;5030804;28;20398;-71
2022/04/25 02:54:10;;;;;;;18.45;13.95;;;;;;;4.94;93.04;99607.81;5028803;28;20489;-70
2022/04/25 02:56:35;;;;;;;18.67;14.63;;;;;;;4.93;93.16;99605.31;5032707;28;20174;-70
2022/04/25 02:59:00;;;;;;;17.42;13.32;;;;;;;4.93;93.25;99600.91;5032991;28;20437;-71
2022/04/25 03:01:26;;;;;;;19.08;14.65;;;;;;;4.85;93.29;99609.47;5032909;28;20030;-70
2022/04/25 03:03:51;;;;;;;19.17;15.43;;;;;;;4.75;93.48;99620.91;5035218;28;20080;-71
2022/04/25 03:06:16;;;;;;;18.70;14.70;;;;;;;4.65;93.51;99616.50;5031375;28;20037;-70
2022/04/25 03:08:41;;;;;;;;;;;;;;;4.60;93.79;99617.84;5032614;28;20045;-71
2022/04/25 03:11:08;;;;;;;27.63;19.63;;;;;;;4.67;93.83;99616.34;5030661;28;19932;-71
2022/04/25 03:13:34;;;;;;;27.35;20.35;;;;;;;4.77;93.88;99617.19;5030364;28;20288;-71
2022/04/25 03:16:01;;;;;;;26.58;19.92;;;;;;;4.82;93.85;99625.47;5033534;28;20419;-70
2022/04/25 03:18:29;;;;;;;28.25;20.60;;;;;;;4.86;93.93;99628.63;5032552;28;20025;-71
2022/04/25 03:20:54;;;;;;;28.58;21.38;;;;;;;4.92;94.28;99638.56;5030983;28;20056;-71
2022/04/25 03:23:21;;;;;;;26.88;19.88;;;;;;;4.95;94.17;99635.66;5030721;28;20038;-71
2022/04/25 03:25:48;;;;;;;25.58;19.27;;;;;;;4.93;94.18;99632.34;5025083;28;20033;-70
2022/04/25 03:28:14;;;;;;;24.65;18.70;;;;;;;4.91;94.41;99636.91;5029218;28;20037;-70
2022/04/25 03:30:41;;;;;;;24.75;19.33;;;;;;;4.90;94.74;99643.94;5033635;28;20052;-71
2022/04/25 03:33:08;;;;;;;24.70;18.95;;;;;;;4.97;94.54;99651.25;5027258;28;20029;-71
2022/04/25 03:35:34;;;;;;;24.17;18.55;;;;;;;4.98;94.52;99656.38;5027214;28;20084;-70
2022/04/25 03:38:00;;;;;;;23.02;17.77;;;;;;;4.98;94.59;99653.75;5036297;28;20746;-70
2022/04/25 03:40:25;;;;;;;24.08;17.77;;;;;;;5.01;94.35;99655.25;5035781;28;20070;-71
2022/04/25 03:42:52;;;;;;;22.23;17.00;;;;;;;4.99;94.20;99650.16;5035761;28;20065;-71
2022/04/25 03:45:18;;;;;;;22.58;17.08;;;;;;;4.94;94.37;99654.16;5031608;28;20049;-71
2022/04/25 03:47:45;;;;;;;22.20;16.77;;;;;;;4.95;94.24;99661.84;5031185;28;20033;-70
2022/04/25 03:50:12;;;;;;;19.60;15.48;;;;;;;4.88;94.10;99661.56;5034370;28;20568;-71
2022/04/25 03:52:39;;;;;;;22.05;16.77;;;;;;;4.90;94.12;99664.88;5029494;28;20499;-70
2022/04/25 03:57:54;;;;;;;17.48;13.70;;;;;;;4.80;93.75;99658.81;5034873;28;20044;-71
2022/04/25 04:00:20;;;;;;;16.15;12.95;;;;;;;4.77;93.63;99663.50;5034392;28;20053;-71
2022/04/25 04:02:45;;;;;;;14.52;11.27;;;;;;;4.71;93.45;99662.25;5031068;28;20525;-71
2022/04/25 04:05:12;;;;;;;12.77;10.07;;;;;;;4.65;93.68;99670.66;5030302;28;20071;-71
2022/04/25 04:07:37;;;;;;;17.02;12.23;;;;;;;4.61;93.44;99664.03;5027144;28;20025;-71
2022/04/25 04:10:03;;;;;;;16.65;12.55;;;;;;;4.58;93.31;99653.84;5029424;28;20467;-71
2022/04/25 04:12:31;;;;;;;15.63;11.85;;;;;;;4.58;93.52;99654.66;5031301;28;20049;-70
2022/04/25 04:14:58;;;;;;;14.60;10.95;;;;;;;4.53;93.33;99659.47;5029671;28;20045;-71
2022/04/25 04:17:24;;;;;;;14.85;10.65;;;;;;;4.50;93.69;99661.50;5025976;28;20030;-70
2022/04/25 04:19:50;;;;;;;14.07;10.80;;;;;;;4.52;93.58;99654.34;5036449;28;20478;-70
2022/04/25 04:22:15;;;;;;;17.88;13.02;;;;;;;4.52;94.04;99668.28;5024100;28;20037;-70
2022/04/25 04:24:41;;;;;;;17.08;13.10;;;;;;;4.55;94.37;99664.56;5032042;28;20099;-71
2022/04/25 04:27:07;;;;;;;20.73;15.10;;;;;;;4.64;94.96;99672.44;5031666;28;20394;-71
2022/04/25 04:29:34;;;;;;;19.65;15.35;;;;;;;4.71;95.13;99677.97;5027269;28;20041;-72
2022/04/25 04:32:05;;;;;;;21.08;16.52;;;;;;;4.73;95.22;99677.84;5030506;28;20481;-71
2022/04/25 04:34:31;;;;;;;18.70;14.60;;;;;;;4.79;95.13;99677.28;5021387;28;20194;-71
2022/04/25 04:36:56;;;;;;;16.83;13.32;;;;;;;4.80;95.03;99678.94;5025351;28;20084;-70
2022/04/25 04:39:21;;;;;;;18.13;13.70;;;;;;;4.82;94.89;99685.72;5029285;28;20049;-70
2022/04/25 04:41:47;;;;;;;17.35;12.80;;;;;;;4.82;94.68;99688.31;5034907;28;20030;-71
2022/04/25 04:44:13;;;;;;;18.67;13.38;;;;;;;4.88;94.41;99693.00;5033959;28;20397;-71
2022/04/25 04:46:38;;;;;;;16.88;12.63;;;;;;;4.93;94.31;99697.03;5031046;28;20037;-70
2022/04/25 04:49:04;;;;;;;18.17;14.27;;;;;;;5.01;94.22;99695.38;5029633;28;20453;-71
2022/04/25 04:51:29;;;;;;;22.17;16.20;;;;;;;5.09;93.94;99692.06;5029912;28;20041;-71
2022/04/25 04:53:59;;;;;;;20.52;16.70;;;;;;;5.14;93.71;99697.72;5029528;28;20083;-71
2022/04/25 04:56:25;;;;;;;21.80;15.80;;;;;;;5.17;93.41;99697.44;5025016;28;20041;-71
2022/04/25 04:58:50;;;;;;;17.15;13.40;;;;;;;5.19;93.62;99702.56;5028202;28;20052;-71
2022/04/25 05:01:15;;;;;;;18.65;14.50;;;;;;;5.24;93.84;99693.34;5026706;28;20393;-71
2022/04/25 05:03:43;;;;;;;19.48;15.70;;;;;;;5.36;93.78;99690.56;5030073;28;20052;-71
2022/04/25 05:06:08;;;;;;;20.83;15.88;;;;;;;5.47;93.38;99696.47;5029012;28;20034;-71
2022/04/25 05:08:33;;;;;;;19.75;15.77;;;;;;;5.60;93.42;99697.97;5028596;28;20482;-71
2022/04/25 05:10:59;;;;;;;17.80;13.73;;;;;;;5.71;93.50;99695.22;5027868;28;20041;-71
2022/04/25 05:13:24;;;;;;;15.02;11.60;;;;;;;5.82;93.51;99702.09;5025452;28;20048;-71
2022/04/25 05:15:49;;;;;;;13.60;10.88;;;;;;;5.98;93.31;99704.97;5029934;28;20068;-71
2022/04/25 05:18:15;;;;;;;12.15;9.07;;;;;;;6.15;93.38;99711.31;5029981;28;20029;-71
2022/04/25 05:20:41;;;;;;;12.40;8.93;;;;;;;6.33;92.87;99714.00;5028649;28;20399;-71
2022/04/25 05:23:10;;;;;;;11.25;8.50;;;;;;;6.54;93.07;99711.97;5040191;28;20048;-71
2022/04/25 05:25:38;;;;;;;11.88;8.65;;;;;;;6.74;92.36;99727.63;5028771;28;20068;-71
2022/04/25 05:28:05;;;;;;;9.77;7.80;;;;;;;6.80;92.19;99727.03;5022675;28;20034;-71
2022/04/25 05:30:31;;;;;;;11.07;9.00;;;;;;;6.86;92.39;99726.44;5033872;28;20090;-71
2022/04/25 05:32:58;;;;;;;12.27;10.15;;;;;;;7.08;92.10;99716.47;5026670;28;20518;-71
2022/04/25 05:35:29;;;;;;;13.82;10.55;;;;;;;7.34;91.61;99716.56;5028785;28;20414;-71
2022/04/25 05:37:54;;;;;;;14.57;11.27;;;;;;;7.60;91.04;99727.13;5026591;28;20171;-71
2022/04/25 05:40:20;;;;;;;12.75;10.00;;;;;;;7.68;89.92;99726.41;5034899;28;20100;-71
2022/04/25 05:42:47;;;;;;;11.82;9.57;;;;;;;7.84;90.20;99740.50;5029677;28;20033;-71
2022/04/25 05:45:21;;;;;;;11.55;9.70;;;;;;;8.02;89.93;99731.72;5029403;28;20025;-71
2022/04/25 05:47:47;;;;;;;11.57;9.18;;;;;;;8.33;89.90;99734.69;5030394;28;20045;-71
2022/04/25 05:53:00;;;;;;;11.88;9.57;;;;;;;9.09;88.13;99733.88;5026254;28;20040;-72
2022/04/25 05:55:26;;;;;;;9.63;8.23;;;;;;;9.57;88.54;99750.75;5025546;28;20560;-72
2022/04/25 05:57:51;;;;;;;9.50;8.15;;;;;;;10.13;87.99;99760.59;5026777;28;20124;-72
2022/04/25 06:00:17;;;;;;;9.15;7.75;;;;;;;10.65;86.84;99773.38;5030280;28;20144;-72
2022/04/25 06:02:44;;;;;;;10.18;8.68;;;;;;;10.97;83.52;99772.44;5030995;28;20465;-72
2022/04/25 06:05:11;;;;;;;10.10;8.90;;;;;;;10.97;83.36;99776.91;5027403;28;20398;-72
2022/04/25 06:07:45;;;;;;;10.95;9.27;;;;;;;10.85;81.86;99787.06;5023376;28;20025;-72
2022/04/25 06:10:13;;;;;;;11.00;9.27;;;;;;;10.75;80.96;99795.19;5026103;28;20025;-72
2022/04/25 06:12:57;;;;;;;11.52;10.23;;;;;;;10.47;79.83;99799.25;5023949;28;20041;-71
2022/04/25 06:15:26;;;;;;;13.75;10.10;;;;;;;10.28;79.64;99806.53;5026590;28;20038;-71
2022/04/25 06:17:52;;;;;;;12.18;10.10;;;;;;;10.16;79.09;99810.50;5019588;28;20041;-72
2022/04/25 06:20:18;;;;;;;13.20;11.10;;;;;;;10.06;78.54;99808.03;5019492;28;20060;-71
2022/04/25 06:22:55;;;;;;;11.85;9.93;;;;;;;10.03;78.95;99808.34;5022892;28;20327;-71
2022/04/25 06:25:21;;;;;;;11.88;10.45;;;;;;;10.07;79.05;99809.66;5030299;28;20454;-71
2022/04/25 06:27:47;;;;;;;14.32;10.35;;;;;;;10.13;78.51;99808.16;5034180;28;20061;-72
2022/04/25 06:30:13;;;;;;;15.05;10.77;;;;;;;10.12;78.34;99809.16;5023417;28;20541;-72
2022/04/25 06:32:38;;;;;;;12.40;11.07;;;;;;;10.03;78.00;99804.88;5027370;28;20045;-71
2022/04/25 06:35:04;;;;;;;11.25;9.40;;;;;;;10.00;78.22;99801.56;5029523;28;20037;-72
2022/04/25 06:37:29;;;;;;;9.93;8.82;;;;;;;10.07;78.43;99800.91;5024171;28;20026;-72
2022/04/25 06:39:55;;;;;;;9.23;7.72;;;;;;;10.18;78.68;99792.66;5023840;28;20044;-72
2022/04/25 06:42:20;;;;;;;11.25;9.40;;;;;;;10.12;78.37;99801.22;5028067;28;20025;-71
2022/04/25 06:44:46;;;;;;;17.58;12.32;;;;;;;9.94;78.10;99798.78;5024430;28;20053;-71
2022/04/25 06:47:11;;;;;;;14.98;12.75;;;;;;;9.79;78.47;99788.03;5029723;28;20033;-71
2022/04/25 06:49:37;;;;;;;15.27;12.50;;;;;;;9.78;78.68;99787.22;5045522;28;20552;-71
2022/04/25 06:52:02;;;;;;;17.92;13.68;;;;;;;9.76;78.43;99793.66;5021493;28;20073;-71
2022/04/25 06:54:30;;;;;;;13.30;11.35;;;;;;;9.77;79.19;99792.66;5046054;28;20052;-71
2022/04/25 06:56:57;;;;;;;13.90;11.25;;;;;;;9.84;79.19;99788.34;5028734;28;20040;-71
2022/04/25 06:59:23;;;;;;;13.57;11.35;;;;;;;9.93;79.16;99797.13;5027383;28;20387;-71
2022/04/25 07:01:49;;;;;;;11.40;9.43;;;;;;;10.11;79.31;99799.59;5027930;28;20036;-71
2022/04/25 07:04:16;;;;;;;10.88;8.90;;;;;;;10.31;79.37;99794.81;5024770;28;20033;-72
2022/04/25 07:06:43;;;;;;;16.73;12.45;;;;;;;10.17;78.63;99788.34;5027084;28;20042;-72
2022/04/25 07:09:12;;;;;;;13.30;11.40;;;;;;;10.05;78.76;99793.16;5025121;28;20602;-71
2022/04/25 07:11:43;;;;;;;11.60;9.73;;;;;;;10.11;79.70;99795.13;5024961;28;20208;-71
2022/04/25 07:14:10;;;;;;;9.10;7.60;;;;;;;10.51;80.60;99796.09;5021911;28;20037;-71
2022/04/25 07:16:35;;;;;;;11.80;9.10;;;;;;;11.16;80.61;99795.00;5022640;28;20034;-72
2022/04/25 07:19:01;;;;;;;10.30;8.07;;;;;;;11.71;79.08;99793.16;5023844;28;20033;-72
2022/04/25 07:29:38;;;;;;;8.18;5.93;;;;;;;14.52;74.95;99799.00;5023430;28;20110;-72
2022/04/25 07:32:03;;;;;;;7.18;5.82;;;;;;;15.05;72.33;99798.47;5027813;28;20061;-72
2022/04/25 07:34:29;;;;;;;6.88;5.82;;;;;;;15.57;71.27;99791.66;5036256;28;20037;-72
2022/04/25 07:36:55;;;;;;;10.82;8.02;;;;;;;16.10;67.68;99790.91;5026332;28;20042;-72
2022/04/25 07:39:21;;;;;;;9.20;7.80;;;;;;;16.45;65.56;99793.34;5035343;28;20033;-72
2022/04/25 07:41:47;;;;;;;7.80;6.93;;;;;;;16.96;64.81;99795.25;5033289;28;20085;-73
2022/04/25 07:44:13;;;;;;;7.15;5.93;;;;;;;17.42;63.61;99791.53;5032026;28;20026;-73
2022/04/25 07:46:42;;;;;;;6.38;5.63;;;;;;;17.90;62.83;99791.06;5036605;28;20043;-72
2022/04/25 07:49:09;;;;;;;7.35;6.55;;;;;;;18.31;60.34;99791.53;5033591;28;20068;-73
2022/04/25 07:51:35;;;;;;;8.35;7.05;;;;;;;18.49;58.98;99798.75;5030685;28;20071;-72
2022/04/25 07:54:00;;;;;;;8.65;7.07;;;;;;;18.44;58.81;99800.22;5027313;28;20041;-72
2022/04/25 07:56:26;;;;;;;9.63;7.72;;;;;;;18.77;57.56;99799.09;5043296;28;20034;-72
2022/04/25 07:58:51;;;;;;;7.68;6.88;;;;;;;19.15;57.22;99803.41;5029244;28;20117;-73
2022/04/25 08:01:17;;;;;;;8.52;6.50;;;;;;;19.40;55.75;99808.66;5031126;28;20037;-73
2022/04/25 08:03:42;;;;;;;6.90;5.68;;;;;;;19.69;52.52;99809.69;5034058;28;20091;-72
2022/04/25 08:06:07;;;;;;;7.43;6.70;;;;;;;19.86;51.89;99809.84;5030688;28;20045;-73
2022/04/25 08:08:33;;;;;;;9.55;7.90;;;;;;;20.12;51.84;99821.22;5028996;28;20276;-72
2022/04/25 08:10:59;;;;;;;8.48;7.38;;;;;;;20.39;52.54;99820.75;5032429;28;20034;-72
2022/04/25 08:18:52;;;;;;;9.98;8.27;;;;;;;20.80;49.54;99809.06;5027446;28;20574;-72
2022/04/25 08:21:17;;;;;;;9.95;7.70;;;;;;;20.97;49.78;99815.38;5032302;28;21458;-72
2022/04/25 08:23:45;;;;;;;7.32;6.40;;;;;;;21.47;49.93;99821.16;5031077;28;19924;-72
2022/04/25 08:26:10;;;;;;;;;;;;;;;22.02;49.07;99818.66;5025357;28;20037;-73
2022/04/25 08:28:36;;;;;;;9.70;8.00;;;;;;;22.18;47.00;99819.69;5031055;28;19932;-72
2022/04/25 08:31:01;;;;;;;7.75;6.25;;;;;;;22.23;47.20;99816.28;5033699;28;20046;-73
2022/04/25 08:33:26;;;;;;;7.85;6.60;;;;;;;22.35;46.58;99821.59;5026795;28;20045;-72
2022/04/25 08:35:52;;;;;;;8.65;5.93;;;;;;;22.67;45.50;99824.50;5026017;28;20041;-72
2022/04/25 08:38:17;;;;;;;7.57;6.75;;;;;;;23.13;43.98;99821.59;5029003;28;20057;-73
2022/04/25 08:40:44;;;;;;;6.90;6.20;;;;;;;23.01;43.61;99830.59;5031284;28;20048;-72
2022/04/25 08:43:11;;;;;;;8.88;6.65;;;;;;;22.91;43.20;99830.47;5033464;28;20037;-72
2022/04/25 08:45:37;;;;;;;9.30;8.40;;;;;;;22.78;42.83;99830.81;5038846;28;20042;-72
2022/04/25 08:48:03;;;;;;;8.07;7.28;;;;;;;22.90;42.66;99826.94;5030440;28;20473;-72
2022/04/25 08:50:29;;;;;;;8.90;8.00;;;;;;;23.32;41.82;99834.47;5037355;28;20107;-72
2022/04/25 08:52:56;;;;;;;9.65;7.70;;;;;;;23.73;40.86;99829.53;5034046;28;20601;-72
2022/04/25 08:55:22;;;;;;;7.18;6.15;;;;;;;23.91;40.68;99836.44;5033690;28;20049;-73
2022/04/25 08:57:48;;;;;;;;;;;;;;;24.30;40.43;99825.41;5030296;28;20504;-72
2022/04/25 09:00:15;;;;;;;8.75;6.78;;;;;;;24.37;38.88;99831.38;5034766;28;20189;-72
2022/04/25 09:02:41;;;;;;;8.13;7.07;;;;;;;23.89;38.21;99827.78;5038141;28;20456;-72
2022/04/25 09:05:08;;;;;;;7.10;6.28;;;;;;;23.82;39.57;99837.19;5036332;28;20037;-73
2022/04/25 09:07:37;;;;;;;7.38;6.22;;;;;;;24.12;38.59;99831.19;5033688;28;20163;-72
2022/04/25 09:10:10;;;;;;;7.55;6.75;;;;;;;24.38;37.78;99827.63;5035197;28;20038;-73
2022/04/25 09:12:37;;;;;;;7.07;5.88;;;;;;;23.67;38.21;99835.13;5033334;28;20045;-72
2022/04/25 09:15:08;;;;;;;6.28;5.35;;;;;;;23.43;38.94;99834.59;5033149;28;20061;-72
2022/04/25 09:17:34;;;;;;;;;;;;;;;23.63;39.34;99825.91;5035454;28;20030;-73
2022/04/25 09:20:00;;;;;;;6.53;4.70;;;;;;;23.54;39.34;99823.63;5033797;28;20431;-73
2022/04/25 09:22:31;;;;;;;5.80;5.22;;;;;;;24.05;37.85;99833.31;5035172;28;20046;-72
2022/04/25 09:25:03;;;;;;;6.40;5.70;;;;;;;25.14;35.57;99837.22;5025982;28;20037;-72
2022/04/25 09:27:29;;;;;;;5.93;4.90;;;;;;;25.37;35.24;99835.97;5036406;28;20098;-73
2022/04/25 09:29:54;;;;;;;6.05;4.35;;;;;;;25.90;34.63;99845.84;5029226;28;20034;-73
2022/04/25 09:32:32;;;;;;;6.53;4.70;;;;;;;26.52;32.94;99846.63;5019980;28;20525;-73
2022/04/25 09:34:59;;;;;;;6.30;5.65;;;;;;;26.98;32.49;99841.06;5029043;28;20049;-73
2022/04/25 09:37:45;;;;;;;5.95;4.28;;;;;;;26.98;33.03;99844.63;5034708;28;20037;-72
2022/04/25 09:40:11;;;;;;;5.82;5.22;;;;;;;26.90;32.78;99843.28;5035314;28;20041;-73
2022/04/25 09:42:37;;;;;;;7.25;5.07;;;;;;;27.57;31.79;99848.41;5029656;28;20033;-73
2022/04/25 09:45:05;;;;;;;6.68;5.65;;;;;;;28.35;29.72;99839.41;5032325;28;20049;-72
2022/04/25 09:47:31;;;;;;;6.00;5.30;;;;;;;29.16;29.26;99839.63;5035441;28;20048;-72
2022/04/25 09:50:01;;;;;;;4.65;4.15;;;;;;;29.52;29.08;99841.88;5030842;28;20048;-72
2022/04/25 09:52:27;;;;;;;4.90;4.00;;;;;;;29.92;28.76;99850.56;5024315;28;20045;-73
2022/04/25 09:54:53;;;;;;;5.18;4.15;;;;;;;30.29;27.68;99845.31;5022123;28;20072;-73
2022/04/25 09:57:30;;;;;;;5.80;4.68;;;;;;;30.04;27.69;99847.38;5031239;28;20485;-73
2022/04/25 09:59:59;;;;;;;4.15;3.75;;;;;;;30.69;26.95;99847.28;5030317;28;20108;-72
2022/04/25 10:02:24;;;;;;;5.70;4.88;;;;;;;30.42;25.97;99841.84;5029277;28;21776;-73
2022/04/25 10:04:50;;;;;;;5.85;5.00;;;;;;;30.33;26.15;99849.09;5032921;28;20045;-73
2022/04/25 10:07:17;;;;;;;7.55;5.00;;;;;;;29.96;26.52;99848.03;5030231;28;20038;-73
2022/04/25 10:09:44;;;;;;;5.40;4.50;;;;;;;30.22;25.42;99849.25;5032790;28;20157;-72
2022/04/25 10:12:09;;;;;;;5.22;4.72;;;;;;;29.82;25.72;99851.53;5027348;28;20034;-72
2022/04/25 10:14:36;;;;;;;8.07;6.47;;;;;;;29.75;24.93;99853.00;5029675;28;20533;-73
2022/04/25 10:17:02;;;;;;;5.35;4.80;;;;;;;27.76;27.23;99845.84;5029364;28;20235;-72
2022/04/25 10:19:29;;;;;;;5.68;5.05;;;;;;;27.61;28.17;99848.69;5030870;28;20045;-73
2022/04/25 10:21:56;;;;;;;5.38;4.88;;;;;;;27.22;28.58;99842.13;5031845;28;20064;-73
2022/04/25 10:24:21;;;;;;;5.60;4.30;;;;;;;28.02;28.57;99842.97;5028415;28;20033;-72
2022/04/25 10:26:48;;;;;;;5.07;4.20;;;;;;;28.94;28.07;99845.59;5028816;28;20044;-72
2022/04/25 10:29:19;;;;;;;7.20;5.72;;;;;;;29.71;25.94;99850.06;5026636;28;20029;-73
2022/04/25 10:31:47;;;;;;;5.43;4.25;;;;;;;29.71;25.89;99850.06;5045208;28;20060;-72
2022/04/25 10:34:16;;;;;;;5.97;4.22;;;;;;;29.11;25.87;99852.50;5027556;28;20586;-72
2022/04/25 10:36:46;;;;;;;4.68;4.00;;;;;;;28.28;27.11;99852.53;5028519;28;20037;-73
2022/04/25 10:39:22;;;;;;;5.70;4.88;;;;;;;26.94;28.39;99857.13;5029430;28;20080;-73
2022/04/25 10:44:38;;;;;;;5.95;4.10;;;;;;;25.58;30.45;99850.38;5023437;28;20051;-72
2022/04/25 10:47:03;;;;;;;4.05;3.65;;;;;;;26.22;30.09;99840.16;5025498;28;20041;-72
2022/04/25 10:49:34;;;;;;;4.93;4.00;;;;;;;27.42;28.76;99843.09;5034848;28;20046;-72
2022/04/25 10:52:00;;;;;;;4.70;4.20;;;;;;;26.83;29.03;99850.91;5031326;28;20038;-72
2022/04/25 10:54:29;;;;;;;4.85;4.20;;;;;;;25.21;30.54;99843.22;5025286;28;20052;-71
2022/04/25 10:57:04;;;;;;;4.38;3.85;;;;;;;24.59;31.67;99839.38;5025173;28;20480;-72
2022/04/25 10:59:29;;;;;;;3.90;3.15;;;;;;;26.72;29.61;99845.78;5023282;28;20061;-72
2022/04/25 11:01:58;;;;;;;4.82;3.85;;;;;;;28.47;27.30;99849.13;5025765;28;20481;-72
2022/04/25 11:04:23;;;;;;;4.25;3.63;;;;;;;29.61;25.07;99848.28;5028696;28;20134;-73
2022/04/25 11:07:19;;;;;;;5.47;3.58;;;;;;;28.99;24.98;99848.25;5030553;28;20061;-72
2022/04/25 11:09:44;;;;;;;3.15;2.60;;;;;;;28.31;26.08;99845.69;5030501;28;20041;-71
2022/04/25 11:12:09;;;;;;;2.90;2.55;;;;;;;29.39;24.95;99853.47;5036242;28;20091;-71
2022/04/25 11:14:35;;;;;;;3.45;2.90;;;;;;;30.55;23.47;99862.03;5031566;28;20045;-71
2022/04/25 11:17:12;;;;;;;2.80;2.40;;;;;;;31.61;23.33;99849.28;5031741;28;20034;-71
2022/04/25 11:19:42;;;;;;;2.95;2.60;;;;;;;32.21;22.49;99850.84;5025820;28;20033;-71
2022/04/25 11:22:27;;;;;;;3.47;3.05;;;;;;;32.87;21.20;99857.28;5032293;28;20040;-71
2022/04/25 11:24:53;;;;;;;4.38;2.72;;;;;;;33.12;20.24;99860.44;5032937;28;20435;-71
2022/04/25 11:27:20;;;;;;;3.47;2.78;;;;;;;33.07;20.78;99861.38;5035640;28;20028;-71
2022/04/25 11:30:06;;;;;;;3.28;2.88;;;;;;;32.55;21.01;99855.69;5027484;28;20034;-71
2022/04/25 11:32:35;;;;;;;3.05;2.60;;;;;;;32.99;20.80;99865.69;5033340;28;20048;-71
2022/04/25 11:35:02;;;;;;;3.28;2.53;;;;;;;33.12;19.95;99860.44;5031643;28;20106;-72
2022/04/25 11:37:31;;;;;;;3.47;2.55;;;;;;;33.53;20.60;99860.00;5035516;28;20081;-71
2022/04/25 11:39:58;;;;;;;3.35;2.67;;;;;;;34.26;19.84;99870.31;5034971;28;20069;-71
2022/04/25 11:42:26;;;;;;;2.95;2.58;;;;;;;34.51;19.48;99868.59;5026720;28;20056;-71
2022/04/25 11:44:52;;;;;;;3.08;2.50;;;;;;;34.98;19.00;99865.84;5030456;28;20037;-72
2022/04/25 11:47:21;;;;;;;3.85;2.50;;;;;;;35.10;18.72;99870.66;5033146;28;20607;-72
2022/04/25 11:49:46;;;;;;;3.35;2.88;;;;;;;35.59;18.07;99876.47;5033759;28;20386;-71
2022/04/25 11:52:15;;;;;;;3.53;2.53;;;;;;;35.66;17.54;99865.75;5029066;28;20041;-72
2022/04/25 11:54:42;;;;;;;2.72;2.42;;;;;;;36.13;17.28;99870.19;5034268;28;20044;-72